Time;durP1;ratioP1;P1;durP2;ratioP2;P2;SDS_P1;SDS_P2;PMS_P1;PMS_P2;Temp;Humidity;BMP_temperature;BMP_pressure;BME280_temperature;BME280_humidity;BME280_pressure;Samples;Min_cycle;Max_cycle;Signal;HPM_P1;HPM_P2
2021/03/31 00:00:19;;;;;;;18.48;9.63;;;;;;;6.61;48.41;100584.13;3553612;27;20058;-50
2021/03/31 00:02:00;;;;;;;17.08;9.13;;;;;;;6.60;48.07;100579.78;3552180;27;20423;-47
2021/03/31 00:03:42;;;;;;;14.18;8.13;;;;;;;6.60;48.03;100584.94;3553027;27;20144;-48
2021/03/31 00:05:24;;;;;;;17.38;9.07;;;;;;;6.60;48.36;100584.06;3552797;27;20058;-47
2021/03/31 00:07:06;;;;;;;18.60;9.23;;;;;;;6.59;48.53;100588.31;3551361;27;20587;-47
2021/03/31 00:08:48;;;;;;;15.25;9.45;;;;;;;6.60;48.61;100586.63;3552289;27;20046;-46
2021/03/31 00:10:32;;;;;;;18.13;9.45;;;;;;;6.58;48.37;100586.56;3550921;27;20404;-47
2021/03/31 00:12:14;;;;;;;18.40;9.35;;;;;;;6.59;48.26;100584.88;3553354;27;20634;-47
2021/03/31 00:13:56;;;;;;;16.90;8.32;;;;;;;6.60;48.51;100584.06;3548375;27;20046;-47
2021/03/31 00:15:38;;;;;;;17.65;9.68;;;;;;;6.59;48.72;100583.16;3553222;27;20046;-47
2021/03/31 00:17:19;;;;;;;15.60;8.80;;;;;;;6.58;48.85;100576.25;3550705;27;20058;-48
2021/03/31 00:19:00;;;;;;;16.60;9.15;;;;;;;6.59;48.88;100571.97;3552293;27;20070;-47
2021/03/31 00:20:42;;;;;;;18.80;9.35;;;;;;;6.59;48.94;100577.13;3552567;27;20042;-53
2021/03/31 00:22:24;;;;;;;17.60;9.82;;;;;;;6.59;48.61;100577.13;3550995;27;20139;-52
2021/03/31 00:24:06;;;;;;;17.17;9.00;;;;;;;6.60;48.81;100578.91;3553692;27;20054;-51
2021/03/31 00:25:47;;;;;;;18.42;9.10;;;;;;;6.60;48.54;100571.16;3552094;27;20039;-52
2021/03/31 00:27:29;;;;;;;18.05;9.52;;;;;;;6.60;48.86;100572.03;3552882;27;20054;-52
2021/03/31 00:29:11;;;;;;;18.83;9.48;;;;;;;6.60;48.55;100571.16;3550418;27;20043;-51
2021/03/31 00:30:54;;;;;;;19.63;9.60;;;;;;;6.58;48.78;100568.53;3549807;27;20465;-53
2021/03/31 00:32:36;;;;;;;15.50;9.65;;;;;;;6.57;49.30;100561.59;3552373;27;20051;-51
2021/03/31 00:34:18;;;;;;;17.23;9.40;;;;;;;6.57;49.30;100565.88;3550873;27;20061;-51
2021/03/31 00:36:00;;;;;;;15.88;9.35;;;;;;;6.56;48.77;100565.00;3553272;27;20042;-50
2021/03/31 00:37:41;;;;;;;19.45;10.07;;;;;;;6.56;49.02;100564.09;3551135;27;20053;-52
2021/03/31 00:39:23;;;;;;;17.15;9.50;;;;;;;6.55;49.39;100557.19;3552883;27;20176;-46
2021/03/31 00:41:05;;;;;;;16.92;9.27;;;;;;;6.54;48.98;100564.06;3550308;27;20046;-47
2021/03/31 00:42:47;;;;;;;15.88;9.25;;;;;;;6.52;49.64;100557.94;3549623;27;20131;-47
2021/03/31 00:44:30;;;;;;;14.43;8.70;;;;;;;6.52;49.44;100557.94;3552925;27;20099;-48
2021/03/31 00:46:11;;;;;;;20.58;10.98;;;;;;;6.50;50.17;100560.44;3549559;27;20042;-47
2021/03/31 00:47:53;;;;;;;22.92;11.07;;;;;;;6.50;50.60;100560.44;3553322;27;20050;-53
2021/03/31 00:49:34;;;;;;;18.98;10.18;;;;;;;6.47;50.69;100557.75;3550700;27;20058;-51
2021/03/31 00:51:16;;;;;;;20.33;9.70;;;;;;;6.46;50.79;100561.13;3552273;27;20055;-51
2021/03/31 00:53:00;;;;;;;20.25;11.10;;;;;;;6.43;52.54;100554.94;3550374;27;20043;-53
2021/03/31 00:54:41;;;;;;;22.80;11.70;;;;;;;6.39;52.68;100556.50;3549675;27;20509;-53
2021/03/31 00:56:23;;;;;;;24.23;12.20;;;;;;;6.37;53.39;100552.13;3553052;27;20038;-53
2021/03/31 00:58:05;;;;;;;23.42;11.60;;;;;;;6.33;53.23;100566.56;3549678;27;20050;-49
2021/03/31 00:59:47;;;;;;;19.90;11.77;;;;;;;6.30;53.53;100556.97;3552603;27;20088;-54
2021/03/31 01:01:28;;;;;;;20.52;11.70;;;;;;;6.29;54.11;100549.16;3549860;27;20461;-53
2021/03/31 01:03:10;;;;;;;24.55;11.75;;;;;;;6.26;54.42;100547.34;3550758;27;20054;-52
2021/03/31 01:04:51;;;;;;;19.40;11.13;;;;;;;6.25;55.46;100544.69;3552159;27;20047;-54
2021/03/31 01:06:32;;;;;;;18.60;10.15;;;;;;;6.21;55.72;100541.09;3551564;27;20070;-53
2021/03/31 01:08:14;;;;;;;21.33;11.38;;;;;;;6.16;56.49;100536.56;3552483;27;20419;-54
2021/03/31 01:09:56;;;;;;;21.98;11.23;;;;;;;6.15;56.66;100535.66;3549189;27;20051;-54
2021/03/31 01:11:43;;;;;;;18.75;10.50;;;;;;;6.13;57.25;100537.28;3552576;27;20042;-54
2021/03/31 01:13:46;;;;;;;19.73;10.35;;;;;;;6.09;57.56;100533.69;3543988;27;20204;-50
2021/03/31 01:15:33;;;;;;;16.40;10.07;;;;;;;6.06;57.44;100535.25;3549579;27;20046;-52
2021/03/31 01:17:22;;;;;;;17.70;11.57;;;;;;;6.04;57.58;100526.56;3551557;27;20476;-55
2021/03/31 01:19:29;;;;;;;24.20;10.75;;;;;;;6.01;57.82;100529.00;3550868;27;20419;-57
2021/03/31 01:21:53;;;;;;;20.55;11.52;;;;;;;5.98;57.86;100528.84;3550235;27;20042;-58
2021/03/31 01:24:11;;;;;;;18.83;10.75;;;;;;;5.94;60.19;100527.84;3507264;27;20047;-58
2021/03/31 01:25:59;;;;;;;23.70;12.32;;;;;;;5.91;61.01;100523.44;3538374;28;20081;-58
2021/03/31 01:28:02;;;;;;;18.00;11.20;;;;;;;5.89;61.91;100527.63;3549209;27;20078;-57
2021/03/31 01:30:01;;;;;;;18.80;11.00;;;;;;;5.85;61.48;100517.13;3549240;27;20039;-57
2021/03/31 01:31:53;;;;;;;21.20;11.27;;;;;;;5.81;61.89;100515.22;3552776;27;20047;-58
2021/03/31 01:33:56;;;;;;;21.95;12.00;;;;;;;5.78;62.22;100512.50;3548854;27;20047;-58
2021/03/31 01:35:41;;;;;;;24.23;11.70;;;;;;;5.75;60.48;100519.28;3549090;27;20043;-58
2021/03/31 01:37:27;;;;;;;24.02;12.68;;;;;;;5.74;61.34;100514.91;3538213;28;20640;-56
2021/03/31 01:39:11;;;;;;;21.35;11.68;;;;;;;5.72;60.16;100518.25;3547620;27;20523;-58
2021/03/31 01:40:55;;;;;;;24.60;11.88;;;;;;;5.70;60.06;100513.03;3552344;27;20054;-57
2021/03/31 01:42:39;;;;;;;18.88;11.48;;;;;;;5.69;61.29;100508.66;3551091;27;20046;-56
2021/03/31 01:44:23;;;;;;;23.50;12.73;;;;;;;5.68;61.56;100500.91;3551263;27;20517;-57
2021/03/31 01:46:06;;;;;;;22.05;11.65;;;;;;;5.65;61.57;100499.06;3551334;27;20042;-57
2021/03/31 01:47:49;;;;;;;25.73;12.77;;;;;;;5.64;60.77;100505.03;3550140;27;20042;-56
2021/03/31 01:49:31;;;;;;;20.95;12.57;;;;;;;5.64;62.33;100504.13;3552365;27;20054;-57
2021/03/31 01:51:15;;;;;;;20.55;11.90;;;;;;;5.63;61.33;100507.53;3548834;27;20047;-56
2021/03/31 01:52:58;;;;;;;21.73;11.88;;;;;;;5.62;61.05;100500.59;3550540;27;20050;-55
2021/03/31 01:54:44;;;;;;;23.00;11.85;;;;;;;5.62;61.83;100505.75;3550910;27;20054;-56
2021/03/31 01:56:27;;;;;;;20.33;12.10;;;;;;;5.62;61.88;100503.19;3549168;27;20134;-51
2021/03/31 01:58:09;;;;;;;20.00;12.57;;;;;;;5.60;63.06;100499.66;3552620;27;20503;-50
2021/03/31 01:59:52;;;;;;;24.58;12.57;;;;;;;5.60;62.45;100502.22;3548905;27;20049;-51
2021/03/31 02:01:34;;;;;;;24.38;12.25;;;;;;;5.60;63.27;100497.09;3551848;27;20047;-50
2021/03/31 02:03:18;;;;;;;21.70;12.85;;;;;;;5.58;63.04;100499.56;3549452;27;20092;-49
2021/03/31 02:05:01;;;;;;;20.40;12.77;;;;;;;5.55;62.66;100502.00;3549538;27;20043;-49
2021/03/31 02:06:45;;;;;;;22.13;12.20;;;;;;;5.53;61.82;100496.78;3550986;27;20080;-50
2021/03/31 02:08:26;;;;;;;;;;;;;;;5.53;63.39;100490.75;3549398;27;20050;-50
2021/03/31 02:10:10;;;;;;;19.60;11.65;;;;;;;5.52;63.45;100492.47;3552567;27;19930;-50
2021/03/31 02:11:52;;;;;;;23.95;12.10;;;;;;;5.51;63.08;100490.69;3548454;27;20043;-50
2021/03/31 02:13:35;;;;;;;24.90;12.70;;;;;;;5.51;62.79;100495.81;3550170;27;20419;-51
2021/03/31 02:15:20;;;;;;;24.52;13.70;;;;;;;5.49;62.58;100489.72;3550268;27;20096;-49
2021/03/31 02:17:01;;;;;;;22.52;12.85;;;;;;;5.49;62.45;100494.88;3548735;27;20496;-50
2021/03/31 02:18:44;;;;;;;19.58;11.80;;;;;;;5.49;62.05;100501.72;3551033;27;20054;-49
2021/03/31 02:20:26;;;;;;;22.38;12.07;;;;;;;5.49;62.50;100500.03;3550603;27;20047;-51
2021/03/31 02:22:11;;;;;;;24.33;12.65;;;;;;;5.50;62.79;100494.09;3554626;27;20137;-52
2021/03/31 02:23:52;;;;;;;;;;;;;;;5.50;62.75;100493.19;3551651;27;20096;-53
2021/03/31 02:25:34;;;;;;;22.23;12.45;;;;;;;5.49;61.53;100486.28;3552763;27;19923;-54
2021/03/31 02:27:16;;;;;;;23.27;12.63;;;;;;;5.49;61.26;100484.59;3553245;27;20058;-54
2021/03/31 02:28:58;;;;;;;21.35;12.02;;;;;;;5.49;62.51;100478.56;3552939;27;20050;-56
2021/03/31 02:30:40;;;;;;;23.20;13.18;;;;;;;5.50;61.85;100488.03;3555158;27;20082;-54
2021/03/31 02:32:23;;;;;;;23.40;11.95;;;;;;;5.50;61.93;100476.06;3551310;27;20503;-55
2021/03/31 02:34:06;;;;;;;21.38;12.90;;;;;;;5.50;62.47;100483.78;3553795;27;20043;-52
2021/03/31 02:35:53;;;;;;;27.60;13.07;;;;;;;5.49;63.01;100479.44;3552276;27;20061;-48
2021/03/31 02:37:38;;;;;;;23.40;12.43;;;;;;;5.48;61.50;100475.13;3551166;27;20050;-49
2021/03/31 02:39:22;;;;;;;22.00;12.35;;;;;;;5.48;61.98;100467.41;3554263;27;20050;-52
2021/03/31 02:41:05;;;;;;;28.55;13.35;;;;;;;5.50;61.17;100475.16;3550810;27;20046;-49
2021/03/31 02:42:48;;;;;;;24.55;13.15;;;;;;;5.52;61.90;100479.59;3554271;27;20051;-52
2021/03/31 02:44:32;;;;;;;25.05;13.70;;;;;;;5.52;62.57;100474.44;3551073;27;20054;-50
2021/03/31 02:46:18;;;;;;;22.55;12.85;;;;;;;5.53;61.71;100475.31;3553623;27;20055;-50
2021/03/31 02:48:01;;;;;;;27.98;13.55;;;;;;;5.54;62.18;100479.66;3553242;27;20428;-55
2021/03/31 02:49:47;;;;;;;19.83;12.38;;;;;;;5.52;62.31;100477.00;3550840;27;20043;-54
2021/03/31 02:51:34;;;;;;;26.80;13.23;;;;;;;5.54;61.44;100485.69;3554626;27;20069;-53
2021/03/31 02:53:17;;;;;;;24.30;13.68;;;;;;;5.55;63.28;100478.84;3551145;27;20137;-51
2021/03/31 02:55:01;;;;;;;23.02;13.32;;;;;;;5.55;63.39;100478.84;3552370;27;20503;-49
2021/03/31 02:56:48;;;;;;;25.13;14.15;;;;;;;5.54;63.28;100479.66;3552851;27;20058;-51
2021/03/31 02:58:30;;;;;;;25.42;13.98;;;;;;;5.53;62.94;100475.31;3550810;27;20050;-52
2021/03/31 03:00:13;;;;;;;19.98;12.80;;;;;;;5.53;63.99;100475.31;3555018;27;20099;-49
2021/03/31 03:01:55;;;;;;;20.90;13.65;;;;;;;5.50;63.74;100473.50;3550835;27;20043;-49
2021/03/31 03:03:38;;;;;;;27.73;15.95;;;;;;;5.49;63.20;100470.84;3553876;27;20047;-50
2021/03/31 03:05:21;;;;;;;21.27;13.15;;;;;;;5.48;62.13;100477.69;3551187;27;20557;-49
2021/03/31 03:07:04;;;;;;;20.55;11.88;;;;;;;5.47;63.62;100473.34;3551197;27;20148;-50
2021/03/31 03:08:46;;;;;;;23.45;13.60;;;;;;;5.47;63.57;100467.31;3554411;27;20050;-49
2021/03/31 03:10:27;;;;;;;25.20;14.13;;;;;;;5.46;63.10;100475.84;3551680;27;20555;-51
2021/03/31 03:12:11;;;;;;;24.52;14.18;;;;;;;5.45;63.83;100468.94;3554144;27;20095;-48
2021/03/31 03:13:53;;;;;;;24.27;12.30;;;;;;;5.44;62.83;100473.19;3549261;27;20039;-51
2021/03/31 03:15:36;;;;;;;26.25;13.35;;;;;;;5.44;63.35;100465.47;3553607;27;20085;-50
2021/03/31 03:17:19;;;;;;;22.63;12.35;;;;;;;5.45;62.49;100468.94;3551733;27;20051;-50
2021/03/31 03:19:01;;;;;;;22.60;13.77;;;;;;;5.44;63.72;100465.47;3552920;27;20836;-49
2021/03/31 03:20:42;;;;;;;29.45;13.82;;;;;;;5.44;63.68;100465.47;3554037;27;20078;-49
2021/03/31 03:22:25;;;;;;;27.75;14.38;;;;;;;5.44;63.73;100462.91;3550813;27;20064;-49
2021/03/31 03:24:11;;;;;;;23.95;13.35;;;;;;;5.43;64.78;100462.81;3554221;27;20050;-49
2021/03/31 03:25:53;;;;;;;24.70;13.00;;;;;;;5.40;63.55;100463.56;3550447;27;20046;-49
2021/03/31 03:27:37;;;;;;;24.55;13.60;;;;;;;5.39;64.99;100466.06;3552195;27;20054;-51
2021/03/31 03:29:19;;;;;;;25.98;14.05;;;;;;;5.38;66.27;100465.19;3553379;27;20046;-48
2021/03/31 03:31:01;;;;;;;23.88;14.30;;;;;;;5.33;65.08;100472.69;3550100;27;20054;-48
2021/03/31 03:32:46;;;;;;;26.08;14.68;;;;;;;5.30;66.11;100459.66;3554019;27;20054;-49
2021/03/31 03:34:28;;;;;;;30.30;15.20;;;;;;;5.28;65.39;100457.84;3553097;27;20053;-51
2021/03/31 03:36:11;;;;;;;23.80;14.35;;;;;;;5.27;66.04;100453.50;3554039;27;20051;-48
2021/03/31 03:37:53;;;;;;;22.45;13.65;;;;;;;5.24;65.34;100461.09;3553063;27;20415;-48
2021/03/31 03:39:36;;;;;;;20.67;13.75;;;;;;;5.22;65.60;100461.00;3551873;27;20066;-48
2021/03/31 03:41:18;;;;;;;22.10;14.07;;;;;;;5.22;66.66;100466.16;3553993;27;20042;-48
2021/03/31 03:42:59;;;;;;;22.77;13.52;;;;;;;5.21;66.27;100461.81;3550251;27;20050;-52
2021/03/31 03:44:41;;;;;;;25.58;13.80;;;;;;;5.18;66.81;100454.84;3554087;27;20042;-48
2021/03/31 03:46:22;;;;;;;23.70;14.75;;;;;;;5.18;68.02;100460.00;3550107;27;20103;-48
2021/03/31 03:48:04;;;;;;;23.92;13.93;;;;;;;5.17;66.72;100452.19;3553523;27;20070;-49
2021/03/31 03:49:46;;;;;;;23.08;14.45;;;;;;;5.17;67.50;100458.22;3550830;27;20050;-48
2021/03/31 03:51:28;;;;;;;22.40;13.63;;;;;;;5.15;67.74;100457.25;3551849;27;20066;-48
2021/03/31 03:53:10;;;;;;;26.73;15.05;;;;;;;5.16;68.85;100458.13;3552294;27;20119;-51
2021/03/31 03:54:53;;;;;;;26.65;14.32;;;;;;;5.14;68.61;100462.31;3550149;27;20043;-55
2021/03/31 03:56:34;;;;;;;26.48;14.07;;;;;;;5.11;68.83;100455.34;3553760;27;20073;-55
2021/03/31 03:58:15;;;;;;;30.88;16.38;;;;;;;5.10;69.70;100458.72;3550428;27;20089;-55
2021/03/31 03:59:57;;;;;;;27.38;15.35;;;;;;;5.08;70.56;100450.06;3552957;27;20051;-55
2021/03/31 04:01:38;;;;;;;27.15;15.80;;;;;;;5.06;69.89;100451.69;3550374;27;20070;-54
2021/03/31 04:03:20;;;;;;;25.52;14.68;;;;;;;5.06;70.51;100454.25;3551547;27;20078;-53
2021/03/31 04:05:02;;;;;;;24.88;13.95;;;;;;;5.05;70.33;100449.03;3552526;27;20046;-55
2021/03/31 04:06:44;;;;;;;27.42;13.85;;;;;;;5.03;70.39;100450.66;3552216;27;20043;-55
2021/03/31 04:08:25;;;;;;;26.50;14.40;;;;;;;5.00;71.13;100446.22;3553743;27;20050;-53
2021/03/31 04:10:08;;;;;;;24.13;14.05;;;;;;;4.98;70.03;100448.72;3549961;27;20108;-55
2021/03/31 04:11:51;;;;;;;29.35;14.60;;;;;;;4.97;70.58;100451.22;3553151;27;20049;-55
2021/03/31 04:13:33;;;;;;;29.50;15.85;;;;;;;4.96;71.43;100452.91;3550005;27;20462;-56
2021/03/31 04:15:16;;;;;;;29.83;14.73;;;;;;;4.94;70.86;100453.66;3550723;27;20108;-55
2021/03/31 04:17:01;;;;;;;26.98;15.68;;;;;;;4.93;70.90;100449.31;3553022;27;20043;-56
2021/03/31 04:18:43;;;;;;;26.65;14.98;;;;;;;4.91;71.41;100456.06;3552274;27;20407;-52
2021/03/31 04:20:26;;;;;;;28.08;15.10;;;;;;;4.90;72.28;100449.16;3553174;27;20100;-57
2021/03/31 04:22:09;;;;;;;27.57;14.57;;;;;;;4.87;72.01;100447.31;3549411;27;20075;-56
2021/03/31 04:23:50;;;;;;;26.27;14.85;;;;;;;4.87;72.27;100447.31;3551124;27;20309;-56
2021/03/31 04:25:33;;;;;;;24.00;15.20;;;;;;;4.86;72.03;100444.69;3552037;27;20508;-57
2021/03/31 04:27:17;;;;;;;29.70;16.15;;;;;;;4.84;72.51;100438.59;3550966;27;20511;-56
2021/03/31 04:29:00;;;;;;;26.55;15.57;;;;;;;4.85;73.25;100440.31;3553254;27;20552;-56
2021/03/31 04:30:41;;;;;;;26.67;14.90;;;;;;;4.83;72.34;100439.38;3549605;27;20560;-55
2021/03/31 04:32:26;;;;;;;30.35;15.43;;;;;;;4.84;72.81;100441.16;3552928;27;20050;-54
2021/03/31 04:34:08;;;;;;;27.07;15.33;;;;;;;4.84;72.62;100436.00;3552595;27;20511;-53
2021/03/31 04:35:51;;;;;;;29.98;16.42;;;;;;;4.85;72.61;100441.22;3550036;27;20795;-51
2021/03/31 04:37:33;;;;;;;25.45;15.60;;;;;;;4.86;73.53;100434.41;3553235;27;20093;-52
2021/03/31 04:39:15;;;;;;;31.85;17.00;;;;;;;4.87;73.51;100436.16;3552145;27;20074;-52
2021/03/31 04:40:59;;;;;;;25.85;17.30;;;;;;;4.89;73.94;100439.69;3553119;27;20066;-51
2021/03/31 04:42:41;;;;;;;26.63;16.08;;;;;;;4.89;73.23;100440.56;3549641;27;20050;-57
2021/03/31 04:44:24;;;;;;;28.08;16.00;;;;;;;4.92;73.22;100434.72;3551844;27;20132;-57
2021/03/31 04:46:08;;;;;;;26.30;15.75;;;;;;;4.94;73.77;100439.09;3552908;27;20158;-57
2021/03/31 04:47:49;;;;;;;;;;;;;;;4.95;73.54;100429.69;3550416;27;20050;-53
2021/03/31 04:49:30;;;;;;;30.60;16.13;;;;;;;4.97;73.80;100431.53;3553128;27;19970;-54
2021/03/31 04:51:12;;;;;;;28.13;16.73;;;;;;;4.99;73.15;100437.63;3549362;27;20089;-50
2021/03/31 04:52:53;;;;;;;28.95;16.63;;;;;;;5.01;73.94;100439.38;3552653;27;20055;-52
2021/03/31 04:54:35;;;;;;;25.15;15.43;;;;;;;5.02;73.57;100441.16;3552595;27;20079;-57
2021/03/31 04:56:17;;;;;;;28.48;16.50;;;;;;;5.02;73.61;100434.31;3550387;27;20054;-57
2021/03/31 04:58:01;;;;;;;28.25;15.88;;;;;;;5.02;73.11;100433.44;3552135;27;20050;-56
2021/03/31 04:59:43;;;;;;;27.83;16.33;;;;;;;5.03;73.15;100428.38;3549497;27;20047;-56
2021/03/31 05:01:24;;;;;;;26.75;15.65;;;;;;;5.03;73.78;100435.22;3553331;27;20058;-56
2021/03/31 05:03:06;;;;;;;29.85;17.00;;;;;;;5.04;73.80;100447.25;3551481;27;20042;-55
2021/03/31 05:04:52;;;;;;;28.45;16.42;;;;;;;5.05;73.58;100446.47;3551883;27;20042;-56
2021/03/31 05:06:33;;;;;;;28.10;16.02;;;;;;;5.05;73.90;100438.75;3550820;27;20051;-55
2021/03/31 05:08:15;;;;;;;24.98;15.90;;;;;;;5.06;73.40;100443.97;3550769;27;20054;-56
2021/03/31 05:09:56;;;;;;;24.92;15.63;;;;;;;5.07;73.23;100442.28;3553977;27;20096;-56
2021/03/31 05:11:38;;;;;;;27.20;15.43;;;;;;;5.08;72.83;100437.19;3549592;27;20052;-56
2021/03/31 05:13:19;;;;;;;28.33;15.65;;;;;;;5.10;73.04;100445.88;3550963;27;20046;-56
2021/03/31 05:15:01;;;;;;;27.35;15.43;;;;;;;5.09;72.91;100438.94;3549634;27;20555;-55
2021/03/31 05:16:42;;;;;;;30.08;17.35;;;;;;;5.09;72.88;100441.53;3550671;27;20419;-55
2021/03/31 05:18:23;;;;;;;30.45;15.60;;;;;;;5.09;72.81;100438.94;3551365;27;20057;-55
2021/03/31 05:20:06;;;;;;;30.45;16.30;;;;;;;5.11;73.54;100436.44;3549054;27;20055;-56
2021/03/31 05:21:47;;;;;;;28.50;16.40;;;;;;;5.12;73.49;100448.50;3552966;27;20558;-56
2021/03/31 05:23:29;;;;;;;26.08;15.02;;;;;;;5.13;73.15;100445.13;3549406;27;20042;-55
2021/03/31 05:25:11;;;;;;;25.40;15.65;;;;;;;5.14;73.47;100447.75;3552224;27;20050;-54
2021/03/31 05:26:53;;;;;;;32.75;17.27;;;;;;;5.15;73.65;100446.09;3550662;27;20051;-55
2021/03/31 05:28:35;;;;;;;27.58;17.05;;;;;;;5.16;73.23;100453.00;3549587;27;20043;-54
2021/03/31 05:30:18;;;;;;;29.90;16.25;;;;;;;5.14;73.00;100447.75;3553639;27;20054;-54
2021/03/31 05:31:59;;;;;;;33.75;17.70;;;;;;;5.18;73.96;100441.97;3548925;27;20043;-54
2021/03/31 05:33:41;;;;;;;35.40;18.05;;;;;;;5.23;74.55;100457.63;3552433;27;20050;-53
2021/03/31 05:35:22;;;;;;;30.92;17.05;;;;;;;5.25;74.54;100439.69;3549184;27;20049;-54
2021/03/31 05:37:04;;;;;;;26.05;15.85;;;;;;;5.27;73.83;100443.22;3552014;27;20521;-54
2021/03/31 05:38:46;;;;;;;30.50;17.25;;;;;;;5.29;74.01;100447.63;3549502;27;20183;-55
2021/03/31 05:40:31;;;;;;;36.35;17.23;;;;;;;5.33;73.91;100443.50;3551692;27;20042;-54
2021/03/31 05:42:15;;;;;;;31.38;17.85;;;;;;;5.36;74.17;100447.09;3552259;27;20074;-54
2021/03/31 05:43:57;;;;;;;28.90;17.42;;;;;;;5.41;74.06;100441.28;3549299;27;20070;-54
2021/03/31 05:45:39;;;;;;;32.80;16.83;;;;;;;5.44;74.35;100441.44;3552588;27;20511;-54
2021/03/31 05:47:26;;;;;;;27.98;16.60;;;;;;;5.47;74.54;100436.44;3548888;27;20495;-54
2021/03/31 05:49:07;;;;;;;29.92;17.10;;;;;;;5.51;74.69;100439.22;3551255;27;20050;-51
2021/03/31 05:50:49;;;;;;;33.47;17.80;;;;;;;5.55;75.19;100432.50;3550056;27;20042;-52
2021/03/31 05:52:30;;;;;;;29.88;18.15;;;;;;;5.56;74.25;100432.59;3549252;27;20050;-49
2021/03/31 05:54:12;;;;;;;31.30;18.05;;;;;;;5.61;73.93;100429.38;3552196;27;20544;-48
2021/03/31 05:55:53;;;;;;;36.97;17.23;;;;;;;5.62;73.67;100420.81;3549993;27;20058;-49
2021/03/31 05:57:37;;;;;;;33.00;18.23;;;;;;;5.66;74.00;100422.72;3552750;27;20051;-51
2021/03/31 05:59:20;;;;;;;37.28;17.80;;;;;;;5.69;74.09;100422.84;3551249;27;20094;-49
2021/03/31 06:01:03;;;;;;;35.30;19.83;;;;;;;5.71;75.08;100414.41;3550570;27;20073;-49
2021/03/31 06:02:47;;;;;;;32.08;18.63;;;;;;;5.73;74.78;100415.34;3550146;27;20055;-49
2021/03/31 06:04:28;;;;;;;30.63;18.10;;;;;;;5.73;73.20;100415.34;3549682;27;20354;-49
2021/03/31 06:06:10;;;;;;;31.00;18.58;;;;;;;5.77;74.66;100420.66;3552043;27;20058;-48
2021/03/31 06:07:51;;;;;;;27.73;16.85;;;;;;;5.80;74.57;100415.63;3548610;27;20046;-49
2021/03/31 06:09:32;;;;;;;28.52;17.67;;;;;;;5.83;74.66;100419.19;3552456;27;20658;-49
2021/03/31 06:11:16;;;;;;;30.95;16.83;;;;;;;5.87;73.41;100415.06;3548725;27;20065;-49
2021/03/31 06:13:02;;;;;;;33.38;18.38;;;;;;;5.88;74.18;100415.13;3550520;27;20055;-52
2021/03/31 06:14:43;;;;;;;35.55;18.98;;;;;;;5.92;74.75;100416.16;3552058;27;20042;-50
2021/03/31 06:16:29;;;;;;;25.80;15.85;;;;;;;5.92;74.45;100422.22;3548917;27;20054;-49
2021/03/31 06:18:12;;;;;;;34.65;18.98;;;;;;;5.95;74.59;100421.44;3538076;28;20055;-49
2021/03/31 06:19:53;;;;;;;33.00;19.40;;;;;;;5.96;74.16;100420.66;3548255;27;20046;-50
2021/03/31 06:21:34;;;;;;;37.20;20.02;;;;;;;5.95;74.60;100426.59;3551752;27;20111;-48
2021/03/31 06:23:39;;;;;;;34.53;19.58;;;;;;;5.95;74.57;100413.72;3551470;27;20054;-48
2021/03/31 06:25:23;;;;;;;34.97;20.87;;;;;;;5.94;74.11;100415.44;3548798;27;20047;-49
2021/03/31 06:27:04;;;;;;;34.92;18.88;;;;;;;5.97;75.06;100414.66;3552063;27;20287;-48
2021/03/31 06:28:55;;;;;;;34.08;19.85;;;;;;;6.00;74.50;100417.38;3550532;27;20062;-51
2021/03/31 06:31:08;;;;;;;32.40;18.50;;;;;;;6.02;74.34;100408.03;3549067;27;20096;-49
2021/03/31 06:32:52;;;;;;;38.28;19.38;;;;;;;6.06;74.93;100411.63;3551307;27;20428;-48
2021/03/31 06:34:33;;;;;;;33.50;19.10;;;;;;;6.08;74.28;100403.16;3549762;27;20103;-49
2021/03/31 06:36:17;;;;;;;29.88;18.67;;;;;;;6.12;74.78;100399.91;3552204;27;20046;-48
2021/03/31 06:38:06;;;;;;;34.47;20.13;;;;;;;6.18;74.12;100398.41;3548567;27;20050;-51
2021/03/31 06:39:51;;;;;;;36.97;20.98;;;;;;;6.24;74.81;100394.41;3549455;27;20043;-49
2021/03/31 06:41:35;;;;;;;40.30;21.63;;;;;;;6.32;74.64;100393.00;3551625;27;20115;-51
2021/03/31 06:43:21;;;;;;;39.47;21.23;;;;;;;6.40;74.32;100390.78;3548418;27;20050;-49
2021/03/31 06:45:07;;;;;;;37.35;20.58;;;;;;;6.47;74.06;100382.47;3552192;27;20051;-49
2021/03/31 06:46:55;;;;;;;34.70;20.70;;;;;;;6.58;73.92;100377.75;3545261;27;20443;-48
2021/03/31 06:48:42;;;;;;;37.92;21.10;;;;;;;6.67;74.52;100382.41;3539087;27;20465;-50
2021/03/31 06:50:24;;;;;;;36.10;20.63;;;;;;;6.76;73.47;100374.19;3550208;27;20567;-53
2021/03/31 06:52:07;;;;;;;33.63;19.35;;;;;;;6.84;73.75;100378.81;3548366;27;20046;-52
2021/03/31 06:53:49;;;;;;;32.13;19.85;;;;;;;6.93;73.46;100382.56;3551799;27;20055;-53
2021/03/31 06:55:32;;;;;;;37.63;20.30;;;;;;;7.01;73.75;100376.94;3550448;27;20100;-53
2021/03/31 06:57:22;;;;;;;26.30;16.52;;;;;;;7.07;73.36;100374.59;3551423;27;20046;-52
2021/03/31 06:59:04;;;;;;;35.58;19.30;;;;;;;7.15;73.29;100377.47;3550023;27;20043;-53
2021/03/31 07:00:46;;;;;;;37.17;20.48;;;;;;;7.20;72.50;100368.22;3548628;27;20042;-53
2021/03/31 07:02:30;;;;;;;29.75;20.15;;;;;;;7.26;73.35;100373.63;3550842;27;20057;-53
2021/03/31 07:04:12;;;;;;;35.58;19.90;;;;;;;7.34;73.30;100378.19;3550534;27;20095;-54
2021/03/31 07:05:53;;;;;;;38.67;20.20;;;;;;;7.39;73.08;100364.63;3551697;27;20526;-51
2021/03/31 07:07:36;;;;;;;35.42;19.83;;;;;;;7.47;73.51;100364.91;3550516;27;20506;-53
2021/03/31 07:09:18;;;;;;;38.47;21.75;;;;;;;7.54;73.37;100363.44;3552188;27;20055;-52
2021/03/31 07:11:00;;;;;;;37.58;21.50;;;;;;;7.60;72.36;100368.81;3552344;27;20478;-51
2021/03/31 07:12:43;;;;;;;33.08;21.27;;;;;;;7.64;72.12;100362.97;3550941;27;20051;-50
2021/03/31 07:14:25;;;;;;;39.03;21.98;;;;;;;7.71;71.84;100357.19;3552767;27;20091;-51
2021/03/31 07:16:07;;;;;;;37.03;20.15;;;;;;;7.77;72.43;100360.00;3550822;27;20050;-51
2021/03/31 07:17:53;;;;;;;37.97;20.73;;;;;;;7.83;71.68;100355.06;3554063;27;20054;-51
2021/03/31 07:19:35;;;;;;;38.67;21.65;;;;;;;7.90;71.72;100358.75;3549839;27;20058;-54
2021/03/31 07:21:23;;;;;;;33.75;21.60;;;;;;;7.91;71.12;100354.44;3551267;27;20050;-50
2021/03/31 07:23:05;;;;;;;35.15;21.65;;;;;;;7.95;71.21;100364.06;3553655;27;20103;-52
2021/03/31 07:24:46;;;;;;;36.45;21.17;;;;;;;7.98;70.71;100356.41;3552412;27;20419;-53
2021/03/31 07:26:29;;;;;;;39.92;22.58;;;;;;;8.03;71.57;100357.47;3553990;27;20504;-53
2021/03/31 07:28:13;;;;;;;35.40;22.05;;;;;;;8.08;70.96;100352.47;3552775;27;20042;-52
2021/03/31 07:30:06;;;;;;;;;;;;;;;8.12;70.54;100355.19;3554089;27;20046;-50
2021/03/31 07:31:48;;;;;;;32.47;20.08;;;;;;;8.15;71.43;100352.72;3554272;27;19923;-52
2021/03/31 07:33:37;;;;;;;41.45;21.83;;;;;;;8.19;71.30;100351.13;3552854;27;20399;-53
2021/03/31 07:35:21;;;;;;;36.90;21.70;;;;;;;8.26;70.89;100354.81;3553961;27;20567;-50
2021/03/31 07:37:03;;;;;;;38.90;22.17;;;;;;;8.31;70.50;100350.66;3550142;27;20472;-52
2021/03/31 07:38:46;;;;;;;38.53;22.20;;;;;;;8.34;71.33;100354.22;3553560;27;20535;-51
2021/03/31 07:40:30;;;;;;;35.17;20.17;;;;;;;8.38;70.34;100362.97;3551998;27;20051;-53
2021/03/31 07:42:11;;;;;;;36.72;20.05;;;;;;;8.40;71.08;100359.59;3550502;27;20043;-52
2021/03/31 07:43:56;;;;;;;33.75;20.50;;;;;;;8.43;70.78;100353.66;3553444;27;20047;-52
2021/03/31 07:45:41;;;;;;;34.70;20.23;;;;;;;8.47;70.50;100354.66;3550461;27;20134;-50
2021/03/31 07:47:26;;;;;;;38.47;21.95;;;;;;;8.52;69.82;100363.44;3553722;27;20145;-53
2021/03/31 07:49:08;;;;;;;36.35;20.95;;;;;;;8.54;70.23;100352.28;3550154;27;20042;-53
2021/03/31 07:50:50;;;;;;;35.88;20.95;;;;;;;8.59;70.84;100358.50;3551763;27;20099;-53
2021/03/31 07:52:48;;;;;;;36.92;20.63;;;;;;;8.66;70.72;100349.25;3552919;27;20529;-49
2021/03/31 07:54:32;;;;;;;36.75;21.08;;;;;;;8.71;70.25;100352.84;3550276;27;20531;-50
2021/03/31 07:56:14;;;;;;;31.60;18.73;;;;;;;8.77;70.51;100347.88;3553607;27;20050;-52
2021/03/31 07:58:15;;;;;;;32.35;18.60;;;;;;;8.85;69.61;100344.63;3551254;27;20047;-51